createdAt,value
2022-12-08T00:02:51.127Z,56.71
2022-12-08T00:08:17.161Z,56.61
2022-12-08T00:13:22.895Z,56.15
2022-12-08T00:18:28.887Z,53.22
2022-12-08T00:23:34.748Z,54.15
2022-12-08T00:28:40.350Z,53.10
2022-12-08T00:33:46.121Z,53.50
2022-12-08T00:38:52.062Z,52.27
2022-12-08T00:43:58.013Z,53.61
2022-12-08T00:49:05.567Z,54.04
2022-12-08T00:54:11.381Z,54.96
2022-12-08T00:59:17.669Z,55.29
2022-12-08T01:04:23.593Z,55.81
2022-12-08T01:09:29.180Z,57.34
2022-12-08T01:14:35.465Z,56.38
2022-12-08T01:19:41.358Z,55.93
2022-12-08T01:24:46.981Z,57.38
2022-12-08T01:29:52.808Z,56.69
2022-12-08T01:34:58.557Z,57.77
2022-12-08T01:40:04.773Z,56.87
2022-12-08T01:45:34.697Z,56.80
2022-12-08T01:50:41.638Z,56.63
2022-12-08T01:56:19.573Z,55.90
2022-12-08T02:01:25.600Z,54.45
2022-12-08T02:06:35.782Z,54.78
2022-12-08T02:11:41.420Z,55.46
2022-12-08T02:17:43.787Z,56.19
2022-12-08T02:23:10.270Z,59.08
2022-12-08T02:28:41.476Z,59.81
2022-12-08T02:33:58.452Z,59.05
2022-12-08T02:39:40.141Z,55.94
2022-12-08T02:50:30.844Z,57.24
2022-12-08T02:56:05.843Z,57.34
2022-12-08T03:01:41.425Z,56.21
2022-12-08T03:07:22.226Z,56.63
2022-12-08T03:12:50.885Z,56.17
2022-12-08T03:17:59.919Z,55.70
2022-12-08T03:23:08.849Z,55.87
2022-12-08T03:28:14.987Z,56.27
2022-12-08T03:33:32.159Z,56.93
2022-12-08T03:39:02.048Z,56.39
2022-12-08T03:44:07.812Z,58.51
2022-12-08T03:49:13.476Z,60.17
2022-12-08T03:54:19.435Z,59.92
2022-12-08T03:59:25.182Z,59.59
2022-12-08T04:04:31.447Z,59.65
2022-12-08T04:09:37.107Z,59.38
2022-12-08T04:14:42.838Z,59.37
2022-12-08T04:19:48.249Z,58.99
2022-12-08T04:24:54.591Z,58.76
2022-12-08T04:30:00.424Z,59.25
2022-12-08T04:35:04.796Z,59.27
2022-12-08T04:40:11.030Z,59.38
2022-12-08T04:45:16.942Z,59.68
2022-12-08T04:50:24.083Z,59.65
2022-12-08T04:55:28.655Z,59.70
2022-12-08T05:00:33.846Z,58.68
2022-12-08T05:05:38.261Z,59.09
2022-12-08T05:10:43.414Z,59.21
2022-12-08T05:15:49.077Z,59.14
2022-12-08T05:20:54.910Z,58.35
2022-12-08T05:26:00.038Z,58.97
2022-12-08T05:31:04.536Z,58.96
2022-12-08T05:36:10.932Z,58.96
2022-12-08T05:41:17.861Z,58.46
2022-12-08T05:46:22.627Z,58.00
2022-12-08T05:51:27.402Z,57.96
2022-12-08T05:56:31.616Z,57.92
2022-12-08T06:01:36.301Z,58.10
2022-12-08T06:06:40.728Z,58.04
2022-12-08T06:11:47.058Z,57.76
2022-12-08T06:16:51.430Z,57.10
2022-12-08T06:21:55.646Z,58.27
2022-12-08T06:26:59.958Z,58.80
2022-12-08T06:32:04.278Z,58.69
2022-12-08T06:43:41.760Z,57.41
2022-12-08T06:48:46.825Z,58.03
2022-12-08T06:53:51.397Z,58.09
2022-12-08T06:58:55.578Z,58.16
2022-12-08T07:03:59.875Z,58.65
2022-12-08T07:09:04.444Z,59.19
2022-12-08T07:14:08.773Z,59.00
2022-12-08T07:19:12.909Z,58.53
2022-12-08T07:24:17.162Z,59.05
2022-12-08T07:29:26.242Z,59.42
2022-12-08T07:34:30.830Z,58.40
2022-12-08T07:39:35.052Z,58.59
2022-12-08T07:44:39.302Z,59.39
2022-12-08T07:49:43.484Z,58.57
2022-12-08T07:54:48.304Z,59.25
2022-12-08T07:59:52.604Z,59.13
2022-12-08T08:04:56.880Z,58.59
2022-12-08T08:10:01.153Z,58.61
2022-12-08T08:15:08.307Z,59.28
2022-12-08T08:20:13.855Z,59.08
2022-12-08T08:25:19.754Z,59.36
2022-12-08T08:30:24.100Z,58.50
2022-12-08T08:35:29.071Z,58.85
2022-12-08T08:40:33.538Z,58.55
2022-12-08T08:45:37.956Z,59.91
2022-12-08T08:50:42.146Z,59.26
2022-12-08T08:55:46.873Z,59.39
2022-12-08T09:00:51.215Z,58.23
2022-12-08T09:05:57.224Z,59.01
2022-12-08T09:11:01.855Z,59.63
2022-12-08T09:16:08.514Z,59.99
2022-12-08T09:21:17.317Z,59.88
2022-12-08T09:26:23.037Z,59.18
2022-12-08T09:31:27.915Z,60.33
2022-12-08T09:36:33.011Z,60.46
2022-12-08T09:41:49.410Z,60.00
2022-12-08T09:46:55.100Z,60.83
2022-12-08T09:52:00.353Z,61.46
2022-12-08T09:57:11.999Z,60.29
2022-12-08T10:02:27.292Z,59.75
2022-12-08T10:07:59.802Z,60.42
2022-12-08T10:13:13.501Z,59.77
2022-12-08T10:18:21.455Z,59.37
2022-12-08T10:23:34.332Z,59.58
2022-12-08T10:28:44.484Z,59.90
2022-12-08T10:33:58.702Z,59.25
2022-12-08T10:39:02.937Z,58.92
2022-12-08T10:44:10.529Z,59.47
2022-12-08T10:49:34.248Z,59.57
2022-12-08T10:54:39.012Z,59.02
2022-12-08T10:59:43.509Z,58.78
2022-12-08T11:04:48.394Z,58.87
2022-12-08T11:09:59.170Z,58.04
2022-12-08T11:15:05.912Z,58.31
2022-12-08T11:20:10.381Z,57.64
2022-12-08T11:25:26.736Z,57.74
2022-12-08T11:30:39.245Z,58.11
2022-12-08T11:35:51.537Z,57.66
2022-12-08T11:41:01.994Z,57.67
2022-12-08T11:46:30.044Z,57.19
2022-12-08T11:51:45.287Z,57.50
2022-12-08T11:57:01.579Z,57.34
2022-12-08T12:02:12.872Z,57.96
2022-12-08T12:07:21.636Z,57.93
2022-12-08T12:12:50.644Z,57.69
2022-12-08T12:18:04.431Z,57.66
2022-12-08T12:23:15.916Z,58.17
2022-12-08T12:28:20.416Z,58.19
2022-12-08T12:33:25.410Z,57.86
2022-12-08T12:39:04.895Z,57.97
2022-12-08T12:44:25.310Z,58.34
2022-12-08T12:49:52.264Z,57.97
2022-12-08T12:54:57.795Z,58.27
2022-12-08T13:00:02.000Z,58.21
2022-12-08T13:05:24.242Z,57.84
2022-12-08T13:10:40.166Z,57.67
2022-12-08T13:15:47.590Z,57.63
2022-12-08T13:20:58.095Z,57.60
2022-12-08T13:26:23.808Z,57.31
2022-12-08T13:31:56.680Z,58.33
2022-12-08T13:37:15.019Z,58.56
2022-12-08T13:42:22.625Z,58.47
2022-12-08T13:47:35.177Z,58.56
2022-12-08T13:58:21.389Z,58.26
2022-12-08T14:03:25.844Z,58.28
2022-12-08T14:09:00.121Z,57.71
2022-12-08T14:14:32.734Z,57.58
2022-12-08T14:19:56.718Z,57.50
2022-12-08T14:25:06.194Z,57.99
2022-12-08T14:30:15.955Z,58.07
2022-12-08T14:35:28.927Z,57.59
2022-12-08T14:40:43.232Z,57.74
2022-12-08T14:45:51.399Z,58.28
2022-12-08T14:51:14.884Z,57.10
2022-12-08T14:56:55.472Z,57.80
2022-12-08T15:02:44.015Z,58.77
2022-12-08T15:08:14.164Z,58.48
2022-12-08T15:13:20.509Z,58.90
2022-12-08T15:18:37.980Z,58.28
2022-12-08T15:23:51.047Z,58.24
2022-12-08T15:28:57.260Z,57.86
2022-12-08T15:34:02.886Z,57.76
2022-12-08T15:39:34.597Z,58.19
2022-12-08T15:44:41.145Z,58.38
2022-12-08T15:49:47.856Z,58.19
2022-12-08T15:54:53.652Z,58.11
2022-12-08T15:59:59.699Z,58.80
2022-12-08T16:05:40.855Z,58.37
2022-12-08T16:10:59.285Z,58.29
2022-12-08T16:16:02.656Z,59.29
2022-12-08T16:21:22.675Z,58.84
2022-12-08T16:27:50.733Z,58.47
2022-12-08T16:32:04.176Z,58.77
2022-12-08T16:37:18.882Z,58.09
2022-12-08T16:42:41.213Z,58.08
2022-12-08T16:48:13.535Z,58.08
2022-12-08T16:53:19.252Z,57.78
2022-12-08T16:58:24.973Z,57.41
2022-12-08T17:03:30.875Z,57.41
2022-12-08T17:08:36.656Z,57.42
2022-12-08T17:13:43.057Z,57.11
2022-12-08T17:18:49.270Z,57.18
2022-12-08T17:23:54.826Z,57.66
2022-12-08T17:29:02.810Z,56.96
2022-12-08T17:34:11.737Z,56.77
2022-12-08T17:39:19.357Z,57.13
2022-12-08T17:44:25.351Z,56.94
2022-12-08T17:49:31.696Z,57.07
2022-12-08T17:54:38.156Z,57.11
2022-12-08T17:59:43.866Z,56.59
2022-12-08T18:04:50.088Z,56.48
2022-12-08T18:09:56.054Z,56.27
2022-12-08T18:15:02.474Z,56.03
2022-12-08T18:20:09.185Z,55.12
2022-12-08T18:25:15.224Z,54.72
2022-12-08T18:30:21.237Z,55.03
2022-12-08T18:35:27.531Z,55.08
2022-12-08T18:40:33.114Z,55.29
2022-12-08T18:45:40.465Z,55.91
2022-12-08T18:50:46.940Z,55.95
2022-12-08T18:55:52.751Z,55.83
2022-12-08T19:00:58.439Z,55.36
2022-12-08T19:06:05.597Z,55.32
2022-12-08T19:18:56.306Z,54.88
2022-12-08T19:24:02.156Z,55.10
2022-12-08T19:29:08.668Z,54.94
2022-12-08T19:34:15.023Z,55.18
2022-12-08T19:39:44.944Z,54.87
2022-12-08T19:44:53.567Z,54.89
2022-12-08T19:50:18.874Z,55.01
2022-12-08T19:55:25.174Z,55.31
2022-12-08T20:00:32.110Z,55.75
2022-12-08T20:05:38.222Z,55.61
2022-12-08T20:10:45.115Z,56.18
2022-12-08T20:15:51.106Z,55.92
2022-12-08T20:20:57.667Z,55.72
2022-12-08T20:26:14.240Z,56.26
2022-12-08T20:31:32.084Z,55.96
2022-12-08T20:36:37.838Z,56.19
2022-12-08T20:41:45.261Z,56.35
2022-12-08T20:46:50.956Z,56.08
2022-12-08T20:51:57.300Z,56.43
2022-12-08T20:57:03.267Z,56.24
2022-12-08T21:02:11.192Z,56.25
2022-12-08T21:07:17.231Z,56.25
2022-12-08T21:12:22.855Z,56.27
2022-12-08T21:17:28.738Z,56.82
2022-12-08T21:22:34.672Z,56.92
2022-12-08T21:27:40.633Z,56.15
2022-12-08T21:32:46.593Z,56.83
2022-12-08T21:37:52.712Z,57.61
2022-12-08T21:42:58.420Z,57.23
2022-12-08T21:48:10.906Z,57.67
2022-12-08T21:53:19.061Z,57.59
2022-12-08T21:58:25.002Z,57.18
2022-12-08T22:03:30.896Z,57.69
2022-12-08T22:08:37.511Z,58.11
2022-12-08T22:13:43.808Z,58.16
2022-12-08T22:18:49.420Z,58.42
2022-12-08T22:23:55.052Z,56.42
2022-12-08T22:29:00.898Z,57.02
2022-12-08T22:34:06.832Z,58.07
2022-12-08T22:39:12.871Z,58.18
2022-12-08T22:44:18.514Z,59.25
2022-12-08T22:49:26.676Z,57.96
2022-12-08T22:54:32.517Z,58.27
2022-12-08T22:59:43.777Z,58.66
2022-12-08T23:04:49.694Z,58.90
2022-12-08T23:09:55.569Z,57.65
2022-12-08T23:15:01.136Z,58.27
2022-12-08T23:20:08.722Z,58.41
2022-12-08T23:25:15.112Z,57.21
2022-12-08T23:30:20.835Z,56.07
2022-12-08T23:35:26.553Z,56.87
2022-12-08T23:40:32.382Z,56.96
2022-12-08T23:45:37.991Z,55.98
2022-12-08T23:50:43.892Z,57.03
2022-12-08T23:55:49.754Z,56.59
